sensor_id;sensor_type;location;lat;lon;timestamp;pressure;altitude;pressure_sealevel;temperature;humidity
84427;BME280;74637;52.170;21.034;2024-01-30T00:01:53;102391.70;;;-0.02;77.90
84427;BME280;74637;52.170;21.034;2024-01-30T00:04:20;102388.50;;;-0.04;77.78
84427;BME280;74637;52.170;21.034;2024-01-30T00:06:47;102382.02;;;-0.05;78.10
84427;BME280;74637;52.170;21.034;2024-01-30T00:09:13;102380.27;;;-0.05;78.12
84427;BME280;74637;52.170;21.034;2024-01-30T00:11:40;102373.46;;;-0.06;78.25
84427;BME280;74637;52.170;21.034;2024-01-30T00:14:06;102369.10;;;-0.06;78.43
84427;BME280;74637;52.170;21.034;2024-01-30T00:16:33;102367.02;;;-0.06;78.61
84427;BME280;74637;52.170;21.034;2024-01-30T00:19:00;102372.09;;;-0.05;78.36
84427;BME280;74637;52.170;21.034;2024-01-30T00:21:28;102367.75;;;-0.04;78.47
84427;BME280;74637;52.170;21.034;2024-01-30T00:23:55;102362.18;;;-0.04;78.41
84427;BME280;74637;52.170;21.034;2024-01-30T00:26:22;102359.75;;;-0.03;78.47
84427;BME280;74637;52.170;21.034;2024-01-30T00:28:49;102356.30;;;-0.01;78.73
84427;BME280;74637;52.170;21.034;2024-01-30T00:31:15;102353.38;;;-0.00;78.64
84427;BME280;74637;52.170;21.034;2024-01-30T00:33:42;102352.37;;;0.02;78.61
84427;BME280;74637;52.170;21.034;2024-01-30T00:36:09;102349.44;;;0.03;78.68
84427;BME280;74637;52.170;21.034;2024-01-30T00:38:37;102352.41;;;0.04;78.61
84427;BME280;74637;52.170;21.034;2024-01-30T00:41:03;102358.16;;;0.04;78.60
84427;BME280;74637;52.170;21.034;2024-01-30T00:43:30;102353.11;;;0.04;78.51
84427;BME280;74637;52.170;21.034;2024-01-30T00:46:00;102353.63;;;0.03;78.62
84427;BME280;74637;52.170;21.034;2024-01-30T00:48:27;102347.48;;;0.01;78.47
84427;BME280;74637;52.170;21.034;2024-01-30T00:50:53;102347.11;;;0.00;78.60
84427;BME280;74637;52.170;21.034;2024-01-30T00:53:20;102344.67;;;0.00;78.62
84427;BME280;74637;52.170;21.034;2024-01-30T00:55:47;102341.86;;;-0.01;78.69
84427;BME280;74637;52.170;21.034;2024-01-30T00:58:13;102342.58;;;0.00;78.73
84427;BME280;74637;52.170;21.034;2024-01-30T01:00:40;102342.97;;;0.02;78.71
84427;BME280;74637;52.170;21.034;2024-01-30T01:03:10;102344.05;;;0.04;78.85
84427;BME280;74637;52.170;21.034;2024-01-30T01:05:37;102344.98;;;0.05;78.87
84427;BME280;74637;52.170;21.034;2024-01-30T01:08:04;102339.20;;;0.05;78.68
84427;BME280;74637;52.170;21.034;2024-01-30T01:10:30;102338.10;;;0.02;78.71
84427;BME280;74637;52.170;21.034;2024-01-30T01:12:57;102338.52;;;-0.01;78.92
84427;BME280;74637;52.170;21.034;2024-01-30T01:15:24;102333.93;;;-0.04;78.74
84427;BME280;74637;52.170;21.034;2024-01-30T01:17:50;102338.05;;;-0.07;78.99
84427;BME280;74637;52.170;21.034;2024-01-30T01:20:17;102341.09;;;-0.11;78.68
84427;BME280;74637;52.170;21.034;2024-01-30T01:22:44;102339.85;;;-0.12;78.86
84427;BME280;74637;52.170;21.034;2024-01-30T01:25:11;102338.98;;;-0.11;78.88
84427;BME280;74637;52.170;21.034;2024-01-30T01:27:37;102335.73;;;-0.09;78.92
84427;BME280;74637;52.170;21.034;2024-01-30T01:30:10;102343.36;;;-0.11;78.75
84427;BME280;74637;52.170;21.034;2024-01-30T01:32:38;102344.59;;;-0.18;78.96
84427;BME280;74637;52.170;21.034;2024-01-30T01:35:05;102347.98;;;-0.21;78.65
84427;BME280;74637;52.170;21.034;2024-01-30T01:37:34;102345.87;;;-0.22;78.79
84427;BME280;74637;52.170;21.034;2024-01-30T01:40:00;102345.98;;;-0.24;78.85
84427;BME280;74637;52.170;21.034;2024-01-30T01:42:27;102337.71;;;-0.28;78.75
84427;BME280;74637;52.170;21.034;2024-01-30T01:44:54;102339.20;;;-0.31;79.16
84427;BME280;74637;52.170;21.034;2024-01-30T01:47:20;102338.45;;;-0.33;79.10
84427;BME280;74637;52.170;21.034;2024-01-30T01:49:47;102335.80;;;-0.35;78.87
84427;BME280;74637;52.170;21.034;2024-01-30T01:52:14;102335.05;;;-0.36;78.87
84427;BME280;74637;52.170;21.034;2024-01-30T01:54:41;102336.59;;;-0.38;79.11
84427;BME280;74637;52.170;21.034;2024-01-30T01:57:08;102340.35;;;-0.41;78.90
84427;BME280;74637;52.170;21.034;2024-01-30T01:59:34;102333.46;;;-0.45;79.01
84427;BME280;74637;52.170;21.034;2024-01-30T02:02:02;102334.07;;;-0.48;78.79
84427;BME280;74637;52.170;21.034;2024-01-30T02:04:30;102326.40;;;-0.55;78.89
84427;BME280;74637;52.170;21.034;2024-01-30T02:06:56;102322.50;;;-0.65;79.03
84427;BME280;74637;52.170;21.034;2024-01-30T02:09:23;102318.42;;;-0.74;79.03
84427;BME280;74637;52.170;21.034;2024-01-30T02:11:52;102311.02;;;-0.85;78.90
84427;BME280;74637;52.170;21.034;2024-01-30T02:14:18;102311.02;;;-0.97;79.06
84427;BME280;74637;52.170;21.034;2024-01-30T02:16:45;102310.89;;;-1.08;79.20
84427;BME280;74637;52.170;21.034;2024-01-30T02:19:12;102309.70;;;-1.13;79.36
84427;BME280;74637;52.170;21.034;2024-01-30T02:21:39;102308.98;;;-1.14;79.46
84427;BME280;74637;52.170;21.034;2024-01-30T02:24:06;102307.19;;;-1.10;80.05
84427;BME280;74637;52.170;21.034;2024-01-30T02:26:33;102305.63;;;-1.03;80.29
84427;BME280;74637;52.170;21.034;2024-01-30T02:29:00;102305.92;;;-0.99;80.22
84427;BME280;74637;52.170;21.034;2024-01-30T02:31:26;102306.34;;;-0.96;80.38
84427;BME280;74637;52.170;21.034;2024-01-30T02:33:53;102305.33;;;-0.95;80.23
84427;BME280;74637;52.170;21.034;2024-01-30T02:36:20;102306.52;;;-0.96;80.25
84427;BME280;74637;52.170;21.034;2024-01-30T02:38:47;102307.55;;;-0.96;80.49
84427;BME280;74637;52.170;21.034;2024-01-30T02:41:13;102317.56;;;-0.93;80.70
84427;BME280;74637;52.170;21.034;2024-01-30T02:43:41;102317.66;;;-0.90;80.50
84427;BME280;74637;52.170;21.034;2024-01-30T02:46:07;102316.02;;;-0.85;80.84
84427;BME280;74637;52.170;21.034;2024-01-30T02:51:22;102310.41;;;-0.75;80.58
84427;BME280;74637;52.170;21.034;2024-01-30T02:53:49;102310.02;;;-0.76;79.78
84427;BME280;74637;52.170;21.034;2024-01-30T02:56:16;102312.10;;;-0.82;79.59
84427;BME280;74637;52.170;21.034;2024-01-30T02:58:42;102306.38;;;-0.89;79.64
84427;BME280;74637;52.170;21.034;2024-01-30T03:01:09;102305.77;;;-0.92;79.36
84427;BME280;74637;52.170;21.034;2024-01-30T03:03:36;102301.38;;;-0.93;79.46
84427;BME280;74637;52.170;21.034;2024-01-30T03:06:03;102303.15;;;-0.92;79.69
84427;BME280;74637;52.170;21.034;2024-01-30T03:08:33;102304.14;;;-0.94;79.65
84427;BME280;74637;52.170;21.034;2024-01-30T03:11:01;102306.44;;;-0.93;79.87
84427;BME280;74637;52.170;21.034;2024-01-30T03:13:28;102306.55;;;-0.89;79.72
84427;BME280;74637;52.170;21.034;2024-01-30T03:15:57;102309.77;;;-0.85;79.71
84427;BME280;74637;52.170;21.034;2024-01-30T03:18:24;102311.43;;;-0.82;79.93
84427;BME280;74637;52.170;21.034;2024-01-30T03:20:50;102304.89;;;-0.79;79.65
84427;BME280;74637;52.170;21.034;2024-01-30T03:23:17;102300.55;;;-0.78;79.80
84427;BME280;74637;52.170;21.034;2024-01-30T03:25:43;102304.39;;;-0.78;79.70
84427;BME280;74637;52.170;21.034;2024-01-30T03:28:10;102311.05;;;-0.77;79.67
84427;BME280;74637;52.170;21.034;2024-01-30T03:30:40;102308.99;;;-0.75;79.35
84427;BME280;74637;52.170;21.034;2024-01-30T03:33:07;102303.63;;;-0.74;79.34
84427;BME280;74637;52.170;21.034;2024-01-30T03:35:34;102306.28;;;-0.72;79.48
84427;BME280;74637;52.170;21.034;2024-01-30T03:38:00;102302.14;;;-0.70;79.53
84427;BME280;74637;52.170;21.034;2024-01-30T03:40:27;102303.89;;;-0.71;79.58
84427;BME280;74637;52.170;21.034;2024-01-30T03:42:54;102303.55;;;-0.70;79.52
84427;BME280;74637;52.170;21.034;2024-01-30T03:45:20;102304.08;;;-0.70;79.32
84427;BME280;74637;52.170;21.034;2024-01-30T03:47:47;102304.89;;;-0.72;79.42
84427;BME280;74637;52.170;21.034;2024-01-30T03:50:14;102303.36;;;-0.71;79.35
84427;BME280;74637;52.170;21.034;2024-01-30T03:52:41;102303.17;;;-0.71;79.50
84427;BME280;74637;52.170;21.034;2024-01-30T03:55:08;102299.15;;;-0.72;79.24
84427;BME280;74637;52.170;21.034;2024-01-30T03:57:34;102301.88;;;-0.75;79.30
84427;BME280;74637;52.170;21.034;2024-01-30T04:00:01;102295.02;;;-0.77;79.42
84427;BME280;74637;52.170;21.034;2024-01-30T04:02:28;102294.20;;;-0.75;79.68
84427;BME280;74637;52.170;21.034;2024-01-30T04:04:54;102293.56;;;-0.73;79.50
84427;BME280;74637;52.170;21.034;2024-01-30T04:07:21;102292.73;;;-0.71;79.60
84427;BME280;74637;52.170;21.034;2024-01-30T04:09:48;102294.66;;;-0.71;79.53
84427;BME280;74637;52.170;21.034;2024-01-30T04:12:14;102288.92;;;-0.70;79.52
84427;BME280;74637;52.170;21.034;2024-01-30T04:14:41;102292.45;;;-0.69;79.64
84427;BME280;74637;52.170;21.034;2024-01-30T04:17:07;102290.89;;;-0.68;79.80
84427;BME280;74637;52.170;21.034;2024-01-30T04:19:37;102288.84;;;-0.67;79.49
84427;BME280;74637;52.170;21.034;2024-01-30T04:22:05;102291.64;;;-0.66;79.83
84427;BME280;74637;52.170;21.034;2024-01-30T04:24:31;102294.42;;;-0.66;79.54
84427;BME280;74637;52.170;21.034;2024-01-30T04:26:58;102297.39;;;-0.66;79.32
84427;BME280;74637;52.170;21.034;2024-01-30T04:29:25;102292.88;;;-0.65;79.46
84427;BME280;74637;52.170;21.034;2024-01-30T04:31:51;102297.77;;;-0.64;79.53
84427;BME280;74637;52.170;21.034;2024-01-30T04:34:18;102295.40;;;-0.62;79.84
84427;BME280;74637;52.170;21.034;2024-01-30T04:36:45;102296.33;;;-0.60;79.81
84427;BME280;74637;52.170;21.034;2024-01-30T04:39:12;102297.77;;;-0.58;79.74
84427;BME280;74637;52.170;21.034;2024-01-30T04:41:39;102293.80;;;-0.56;79.38
84427;BME280;74637;52.170;21.034;2024-01-30T04:44:06;102290.38;;;-0.54;79.72
84427;BME280;74637;52.170;21.034;2024-01-30T04:46:33;102295.59;;;-0.55;79.35
84427;BME280;74637;52.170;21.034;2024-01-30T04:49:01;102293.35;;;-0.54;79.19
84427;BME280;74637;52.170;21.034;2024-01-30T04:51:27;102289.20;;;-0.53;79.35
84427;BME280;74637;52.170;21.034;2024-01-30T04:53:57;102289.38;;;-0.53;79.35
84427;BME280;74637;52.170;21.034;2024-01-30T04:56:23;102289.17;;;-0.53;79.48
84427;BME280;74637;52.170;21.034;2024-01-30T04:58:50;102290.54;;;-0.54;79.24
84427;BME280;74637;52.170;21.034;2024-01-30T05:01:17;102291.39;;;-0.56;79.20
84427;BME280;74637;52.170;21.034;2024-01-30T05:03:43;102290.15;;;-0.56;79.56
84427;BME280;74637;52.170;21.034;2024-01-30T05:06:10;102288.06;;;-0.56;79.32
84427;BME280;74637;52.170;21.034;2024-01-30T05:08:37;102290.48;;;-0.57;79.11
84427;BME280;74637;52.170;21.034;2024-01-30T05:11:05;102286.80;;;-0.57;79.22
84427;BME280;74637;52.170;21.034;2024-01-30T05:13:32;102281.05;;;-0.57;79.11
84427;BME280;74637;52.170;21.034;2024-01-30T05:15:58;102280.72;;;-0.57;79.18
84427;BME280;74637;52.170;21.034;2024-01-30T05:18:25;102281.58;;;-0.57;79.18
84427;BME280;74637;52.170;21.034;2024-01-30T05:20:52;102280.18;;;-0.58;79.40
84427;BME280;74637;52.170;21.034;2024-01-30T05:23:18;102278.46;;;-0.57;79.21
84427;BME280;74637;52.170;21.034;2024-01-30T05:25:45;102272.94;;;-0.55;79.31
84427;BME280;74637;52.170;21.034;2024-01-30T05:28:11;102271.92;;;-0.55;79.15
84427;BME280;74637;52.170;21.034;2024-01-30T05:30:38;102274.02;;;-0.54;79.18
84427;BME280;74637;52.170;21.034;2024-01-30T05:33:05;102273.69;;;-0.53;78.92
84427;BME280;74637;52.170;21.034;2024-01-30T05:35:31;102272.15;;;-0.52;79.21
84427;BME280;74637;52.170;21.034;2024-01-30T05:37:58;102272.90;;;-0.49;79.01
84427;BME280;74637;52.170;21.034;2024-01-30T05:40:24;102273.63;;;-0.48;79.30
84427;BME280;74637;52.170;21.034;2024-01-30T05:42:51;102273.83;;;-0.48;79.22
84427;BME280;74637;52.170;21.034;2024-01-30T05:45:17;102276.98;;;-0.47;78.98
84427;BME280;74637;52.170;21.034;2024-01-30T05:47:44;102282.20;;;-0.47;79.18
84427;BME280;74637;52.170;21.034;2024-01-30T05:50:11;102280.64;;;-0.46;79.02
84427;BME280;74637;52.170;21.034;2024-01-30T05:52:38;102280.30;;;-0.46;78.81
84427;BME280;74637;52.170;21.034;2024-01-30T05:55:04;102281.54;;;-0.46;78.91
84427;BME280;74637;52.170;21.034;2024-01-30T05:57:32;102284.45;;;-0.47;78.88
84427;BME280;74637;52.170;21.034;2024-01-30T05:59:58;102283.95;;;-0.47;78.75
84427;BME280;74637;52.170;21.034;2024-01-30T06:02:25;102287.30;;;-0.45;78.89
84427;BME280;74637;52.170;21.034;2024-01-30T06:04:51;102284.69;;;-0.44;78.65
84427;BME280;74637;52.170;21.034;2024-01-30T06:07:18;102291.70;;;-0.43;78.66
84427;BME280;74637;52.170;21.034;2024-01-30T06:09:44;102288.36;;;-0.44;78.64
84427;BME280;74637;52.170;21.034;2024-01-30T06:12:13;102286.98;;;-0.43;78.75
84427;BME280;74637;52.170;21.034;2024-01-30T06:14:39;102289.43;;;-0.43;78.52
84427;BME280;74637;52.170;21.034;2024-01-30T06:17:06;102287.33;;;-0.43;78.68
84427;BME280;74637;52.170;21.034;2024-01-30T06:19:33;102285.41;;;-0.44;78.40
84427;BME280;74637;52.170;21.034;2024-01-30T06:21:59;102277.02;;;-0.45;78.41
84427;BME280;74637;52.170;21.034;2024-01-30T06:24:26;102276.36;;;-0.43;78.38
84427;BME280;74637;52.170;21.034;2024-01-30T06:26:54;102274.98;;;-0.42;78.50
84427;BME280;74637;52.170;21.034;2024-01-30T06:29:20;102280.27;;;-0.40;78.54
84427;BME280;74637;52.170;21.034;2024-01-30T06:31:47;102277.69;;;-0.39;78.31
84427;BME280;74637;52.170;21.034;2024-01-30T06:34:14;102278.56;;;-0.39;78.22
84427;BME280;74637;52.170;21.034;2024-01-30T06:36:40;102280.87;;;-0.37;78.30
84427;BME280;74637;52.170;21.034;2024-01-30T06:39:07;102278.67;;;-0.34;78.23
84427;BME280;74637;52.170;21.034;2024-01-30T06:41:34;102280.44;;;-0.33;78.23
84427;BME280;74637;52.170;21.034;2024-01-30T06:44:04;102282.73;;;-0.32;78.18
84427;BME280;74637;52.170;21.034;2024-01-30T06:46:32;102280.48;;;-0.31;78.14
84427;BME280;74637;52.170;21.034;2024-01-30T06:48:59;102287.34;;;-0.28;78.01
84427;BME280;74637;52.170;21.034;2024-01-30T06:51:25;102286.21;;;-0.25;78.27
84427;BME280;74637;52.170;21.034;2024-01-30T06:53:52;102285.41;;;-0.23;77.94
84427;BME280;74637;52.170;21.034;2024-01-30T06:56:18;102283.86;;;-0.21;77.80
84427;BME280;74637;52.170;21.034;2024-01-30T06:58:49;102286.04;;;-0.18;77.74
84427;BME280;74637;52.170;21.034;2024-01-30T07:01:16;102288.73;;;-0.14;77.80
84427;BME280;74637;52.170;21.034;2024-01-30T07:03:43;102289.46;;;-0.12;77.62
84427;BME280;74637;52.170;21.034;2024-01-30T07:06:10;102293.89;;;-0.10;77.69
84427;BME280;74637;52.170;21.034;2024-01-30T07:08:37;102292.55;;;-0.08;77.55
84427;BME280;74637;52.170;21.034;2024-01-30T07:11:07;102288.41;;;-0.06;77.79
84427;BME280;74637;52.170;21.034;2024-01-30T07:13:34;102292.80;;;-0.04;77.59
84427;BME280;74637;52.170;21.034;2024-01-30T07:16:01;102295.24;;;-0.03;77.38
84427;BME280;74637;52.170;21.034;2024-01-30T07:18:27;102296.87;;;-0.01;77.41
84427;BME280;74637;52.170;21.034;2024-01-30T07:20:54;102294.80;;;-0.01;77.35
84427;BME280;74637;52.170;21.034;2024-01-30T07:23:20;102295.36;;;0.01;77.09
84427;BME280;74637;52.170;21.034;2024-01-30T07:25:47;102296.28;;;0.03;77.12
84427;BME280;74637;52.170;21.034;2024-01-30T07:28:16;102296.36;;;0.07;77.19
84427;BME280;74637;52.170;21.034;2024-01-30T07:30:43;102297.85;;;0.11;77.07
84427;BME280;74637;52.170;21.034;2024-01-30T07:33:10;102298.65;;;0.16;77.03
84427;BME280;74637;52.170;21.034;2024-01-30T07:35:36;102290.23;;;0.21;76.97
84427;BME280;74637;52.170;21.034;2024-01-30T07:38:03;102291.23;;;0.27;76.94
84427;BME280;74637;52.170;21.034;2024-01-30T07:40:30;102285.96;;;0.33;76.90
84427;BME280;74637;52.170;21.034;2024-01-30T07:42:56;102292.22;;;0.40;76.59
84427;BME280;74637;52.170;21.034;2024-01-30T07:45:23;102294.27;;;0.47;76.47
84427;BME280;74637;52.170;21.034;2024-01-30T07:47:51;102293.52;;;0.53;76.26
84427;BME280;74637;52.170;21.034;2024-01-30T07:50:18;102294.34;;;0.59;76.28
84427;BME280;74637;52.170;21.034;2024-01-30T07:52:45;102294.48;;;0.65;75.96
84427;BME280;74637;52.170;21.034;2024-01-30T07:55:12;102286.75;;;0.72;75.66
84427;BME280;74637;52.170;21.034;2024-01-30T07:57:39;102284.79;;;0.78;75.71
84427;BME280;74637;52.170;21.034;2024-01-30T08:00:06;102284.20;;;0.84;75.65
84427;BME280;74637;52.170;21.034;2024-01-30T08:02:33;102284.14;;;0.90;75.54
84427;BME280;74637;52.170;21.034;2024-01-30T08:05:00;102281.98;;;0.96;75.38
84427;BME280;74637;52.170;21.034;2024-01-30T08:07:27;102282.80;;;1.03;75.42
84427;BME280;74637;52.170;21.034;2024-01-30T08:09:56;102280.64;;;1.09;75.03
84427;BME280;74637;52.170;21.034;2024-01-30T08:12:22;102284.24;;;1.15;74.81
84427;BME280;74637;52.170;21.034;2024-01-30T08:14:49;102278.58;;;1.20;74.56
84427;BME280;74637;52.170;21.034;2024-01-30T08:17:15;102277.64;;;1.25;74.38
84427;BME280;74637;52.170;21.034;2024-01-30T08:19:42;102274.58;;;1.31;74.16
84427;BME280;74637;52.170;21.034;2024-01-30T08:22:08;102273.10;;;1.37;74.10
84427;BME280;74637;52.170;21.034;2024-01-30T08:24:35;102276.17;;;1.42;73.96
84427;BME280;74637;52.170;21.034;2024-01-30T08:27:01;102273.47;;;1.48;73.82
84427;BME280;74637;52.170;21.034;2024-01-30T08:29:29;102273.55;;;1.53;73.46
84427;BME280;74637;52.170;21.034;2024-01-30T08:31:55;102271.02;;;1.59;73.40
84427;BME280;74637;52.170;21.034;2024-01-30T08:34:22;102265.17;;;1.64;73.33
84427;BME280;74637;52.170;21.034;2024-01-30T08:36:49;102262.83;;;1.71;73.16
84427;BME280;74637;52.170;21.034;2024-01-30T08:39:16;102261.17;;;1.77;73.18
84427;BME280;74637;52.170;21.034;2024-01-30T08:41:42;102259.87;;;1.84;72.95
84427;BME280;74637;52.170;21.034;2024-01-30T08:44:09;102263.83;;;1.91;72.64
84427;BME280;74637;52.170;21.034;2024-01-30T08:46:37;102260.77;;;1.97;72.48
84427;BME280;74637;52.170;21.034;2024-01-30T08:49:04;102264.16;;;2.02;72.15
84427;BME280;74637;52.170;21.034;2024-01-30T08:51:31;102265.80;;;2.07;72.04
84427;BME280;74637;52.170;21.034;2024-01-30T08:53:57;102267.81;;;2.13;71.78
84427;BME280;74637;52.170;21.034;2024-01-30T08:56:24;102267.89;;;2.18;71.82
84427;BME280;74637;52.170;21.034;2024-01-30T08:58:50;102268.48;;;2.24;71.40
84427;BME280;74637;52.170;21.034;2024-01-30T09:01:17;102270.66;;;2.29;71.06
84427;BME280;74637;52.170;21.034;2024-01-30T09:03:44;102269.86;;;2.36;71.06
84427;BME280;74637;52.170;21.034;2024-01-30T09:06:13;102268.19;;;2.40;70.94
84427;BME280;74637;52.170;21.034;2024-01-30T09:08:39;102262.98;;;2.45;70.89
84427;BME280;74637;52.170;21.034;2024-01-30T09:11:10;102265.01;;;2.52;70.75
84427;BME280;74637;52.170;21.034;2024-01-30T09:13:37;102260.55;;;2.60;70.55
84427;BME280;74637;52.170;21.034;2024-01-30T09:16:04;102261.32;;;2.66;70.54
84427;BME280;74637;52.170;21.034;2024-01-30T09:18:31;102261.23;;;2.74;70.34
84427;BME280;74637;52.170;21.034;2024-01-30T09:20:58;102265.88;;;2.82;70.09
84427;BME280;74637;52.170;21.034;2024-01-30T09:23:27;102266.09;;;2.87;69.07
84427;BME280;74637;52.170;21.034;2024-01-30T09:25:55;102267.75;;;2.93;69.37
84427;BME280;74637;52.170;21.034;2024-01-30T09:28:22;102262.73;;;3.00;69.57
84427;BME280;74637;52.170;21.034;2024-01-30T09:30:48;102258.40;;;3.04;69.15
84427;BME280;74637;52.170;21.034;2024-01-30T09:33:15;102256.89;;;3.11;69.04
84427;BME280;74637;52.170;21.034;2024-01-30T09:35:41;102256.60;;;3.17;69.03
84427;BME280;74637;52.170;21.034;2024-01-30T09:38:08;102254.03;;;3.23;68.81
84427;BME280;74637;52.170;21.034;2024-01-30T09:40:34;102252.49;;;3.29;68.34
84427;BME280;74637;52.170;21.034;2024-01-30T09:43:01;102250.98;;;3.35;68.34
84427;BME280;74637;52.170;21.034;2024-01-30T09:45:27;102249.27;;;3.40;68.08
84427;BME280;74637;52.170;21.034;2024-01-30T09:47:54;102248.45;;;3.46;68.09
84427;BME280;74637;52.170;21.034;2024-01-30T09:50:21;102248.48;;;3.52;67.69
84427;BME280;74637;52.170;21.034;2024-01-30T09:52:48;102244.16;;;3.59;67.00
84427;BME280;74637;52.170;21.034;2024-01-30T09:55:16;102244.75;;;3.67;67.35
84427;BME280;74637;52.170;21.034;2024-01-30T09:57:43;102236.39;;;3.76;67.39
84427;BME280;74637;52.170;21.034;2024-01-30T10:00:10;102236.25;;;3.83;66.72
84427;BME280;74637;52.170;21.034;2024-01-30T10:02:38;102233.33;;;3.90;66.69
84427;BME280;74637;52.170;21.034;2024-01-30T10:05:06;102228.44;;;3.93;66.74
84427;BME280;74637;52.170;21.034;2024-01-30T10:07:32;102227.92;;;3.97;66.36
84427;BME280;74637;52.170;21.034;2024-01-30T10:09:59;102231.10;;;4.01;66.58
84427;BME280;74637;52.170;21.034;2024-01-30T10:12:26;102228.48;;;4.04;66.12
84427;BME280;74637;52.170;21.034;2024-01-30T10:14:56;102228.67;;;4.08;65.60
84427;BME280;74637;52.170;21.034;2024-01-30T10:17:24;102225.90;;;4.12;65.14
84427;BME280;74637;52.170;21.034;2024-01-30T10:19:51;102219.95;;;4.16;65.54
84427;BME280;74637;52.170;21.034;2024-01-30T10:22:18;102223.16;;;4.25;65.11
84427;BME280;74637;52.170;21.034;2024-01-30T10:24:45;102215.82;;;4.33;64.80
84427;BME280;74637;52.170;21.034;2024-01-30T10:27:12;102208.45;;;4.36;63.85
84427;BME280;74637;52.170;21.034;2024-01-30T10:29:38;102209.52;;;4.41;63.87
84427;BME280;74637;52.170;21.034;2024-01-30T10:32:05;102202.17;;;4.48;63.86
84427;BME280;74637;52.170;21.034;2024-01-30T10:34:32;102201.32;;;4.55;63.95
84427;BME280;74637;52.170;21.034;2024-01-30T10:37:08;102204.51;;;4.63;63.73
84427;BME280;74637;52.170;21.034;2024-01-30T10:39:45;102201.53;;;4.68;63.69
84427;BME280;74637;52.170;21.034;2024-01-30T10:42:13;102196.80;;;4.71;63.81
84427;BME280;74637;52.170;21.034;2024-01-30T10:47:26;102191.21;;;4.85;63.48
84427;BME280;74637;52.170;21.034;2024-01-30T10:49:54;102187.35;;;4.92;63.27
84427;BME280;74637;52.170;21.034;2024-01-30T10:52:23;102184.36;;;4.94;62.88
84427;BME280;74637;52.170;21.034;2024-01-30T10:54:53;102183.84;;;5.02;62.83
84427;BME280;74637;52.170;21.034;2024-01-30T10:57:25;102182.62;;;5.11;62.00
84427;BME280;74637;52.170;21.034;2024-01-30T10:59:57;102181.39;;;5.17;62.15
84427;BME280;74637;52.170;21.034;2024-01-30T11:02:25;102176.48;;;5.22;61.66
84427;BME280;74637;52.170;21.034;2024-01-30T11:04:57;102169.08;;;5.26;61.48
84427;BME280;74637;52.170;21.034;2024-01-30T11:07:26;102167.66;;;5.34;61.66
84427;BME280;74637;52.170;21.034;2024-01-30T11:12:31;102157.96;;;5.59;61.52
84427;BME280;74637;52.170;21.034;2024-01-30T11:15:12;102158.63;;;5.72;61.70
84427;BME280;74637;52.170;21.034;2024-01-30T11:17:47;102148.75;;;5.85;61.17
84427;BME280;74637;52.170;21.034;2024-01-30T11:20:19;102150.98;;;5.99;59.95
84427;BME280;74637;52.170;21.034;2024-01-30T11:22:47;102146.41;;;6.10;60.03
84427;BME280;74637;52.170;21.034;2024-01-30T11:25:15;102148.45;;;6.19;59.62
84427;BME280;74637;52.170;21.034;2024-01-30T11:27:44;102143.84;;;6.29;59.42
84427;BME280;74637;52.170;21.034;2024-01-30T11:30:11;102146.09;;;6.35;57.84
84427;BME280;74637;52.170;21.034;2024-01-30T11:33:01;102143.60;;;6.43;58.43
84427;BME280;74637;52.170;21.034;2024-01-30T11:35:30;102138.95;;;6.53;58.80
84427;BME280;74637;52.170;21.034;2024-01-30T11:37:57;102131.31;;;6.62;58.31
84427;BME280;74637;52.170;21.034;2024-01-30T11:40:29;102126.12;;;6.75;58.88
84427;BME280;74637;52.170;21.034;2024-01-30T11:42:59;102129.38;;;6.85;56.99
84427;BME280;74637;52.170;21.034;2024-01-30T11:45:27;102126.70;;;6.92;57.29
84427;BME280;74637;52.170;21.034;2024-01-30T11:47:54;102123.27;;;7.01;57.29
84427;BME280;74637;52.170;21.034;2024-01-30T11:50:21;102120.16;;;7.13;57.62
84427;BME280;74637;52.170;21.034;2024-01-30T11:52:48;102119.88;;;7.25;55.46
84427;BME280;74637;52.170;21.034;2024-01-30T11:55:15;102112.40;;;7.32;55.86
84427;BME280;74637;52.170;21.034;2024-01-30T11:57:42;102112.65;;;7.42;55.49
84427;BME280;74637;52.170;21.034;2024-01-30T12:00:19;102113.76;;;7.55;55.29
84427;BME280;74637;52.170;21.034;2024-01-30T12:02:52;102108.53;;;7.64;54.10
84427;BME280;74637;52.170;21.034;2024-01-30T12:05:23;102108.71;;;7.79;54.59
84427;BME280;74637;52.170;21.034;2024-01-30T12:07:50;102109.48;;;8.29;52.99
84427;BME280;74637;52.170;21.034;2024-01-30T12:10:17;102108.66;;;9.26;51.99
84427;BME280;74637;52.170;21.034;2024-01-30T12:12:49;102107.86;;;10.43;50.96
84427;BME280;74637;52.170;21.034;2024-01-30T12:15:17;102100.48;;;11.53;49.60
84427;BME280;74637;52.170;21.034;2024-01-30T12:17:44;102099.48;;;12.53;48.95
84427;BME280;74637;52.170;21.034;2024-01-30T12:20:17;102097.95;;;13.42;47.37
84427;BME280;74637;52.170;21.034;2024-01-30T12:22:46;102099.29;;;14.26;45.13
84427;BME280;74637;52.170;21.034;2024-01-30T12:25:15;102098.30;;;14.86;44.38
84427;BME280;74637;52.170;21.034;2024-01-30T12:27:44;102096.16;;;15.41;43.88
84427;BME280;74637;52.170;21.034;2024-01-30T12:30:14;102093.30;;;15.93;43.45
84427;BME280;74637;52.170;21.034;2024-01-30T12:32:42;102092.45;;;16.45;42.19
84427;BME280;74637;52.170;21.034;2024-01-30T12:35:13;102090.29;;;16.74;39.82
84427;BME280;74637;52.170;21.034;2024-01-30T12:37:43;102089.39;;;16.89;38.65
84427;BME280;74637;52.170;21.034;2024-01-30T12:40:14;102087.61;;;17.10;38.96
84427;BME280;74637;52.170;21.034;2024-01-30T12:42:41;102086.42;;;17.33;38.14
84427;BME280;74637;52.170;21.034;2024-01-30T12:45:17;102085.91;;;17.39;38.06
84427;BME280;74637;52.170;21.034;2024-01-30T12:47:48;102082.17;;;17.49;36.69
84427;BME280;74637;52.170;21.034;2024-01-30T12:50:15;102069.52;;;17.58;37.05
84427;BME280;74637;52.170;21.034;2024-01-30T12:52:43;102076.38;;;17.80;36.32
84427;BME280;74637;52.170;21.034;2024-01-30T12:55:10;102067.64;;;18.09;36.56